createdAt,value
2023-04-15T00:04:39.132Z,2.3
2023-04-15T00:10:23.508Z,2.2
2023-04-15T00:16:07.775Z,3
2023-04-15T00:21:51.755Z,3
2023-04-15T00:27:35.719Z,2.5
2023-04-15T00:33:20.036Z,2.4
2023-04-15T00:39:04.577Z,3.2
2023-04-15T00:44:48.668Z,2.4
2023-04-15T00:50:32.749Z,2.4
2023-04-15T00:56:17.032Z,2.3
2023-04-15T01:02:02.824Z,2.4
2023-04-15T01:07:47.921Z,3.4
2023-04-15T01:13:32.720Z,3.3
2023-04-15T01:19:18.265Z,2.3
2023-04-15T01:25:04.957Z,2.9
2023-04-15T01:30:48.907Z,2.6
2023-04-15T01:36:32.885Z,2.2
2023-04-15T01:42:16.849Z,2.5
2023-04-15T01:48:01.244Z,2.9
2023-04-15T01:53:45.301Z,2.2
2023-04-15T01:59:29.167Z,2
2023-04-15T02:05:13.440Z,2.3
2023-04-15T02:10:57.527Z,2.5
2023-04-15T02:16:41.831Z,1.7
2023-04-15T02:22:26.121Z,2.7
2023-04-15T02:28:10.229Z,1.8
2023-04-15T02:33:54.531Z,2.3
2023-04-15T02:39:38.793Z,3.1
2023-04-15T02:45:22.936Z,2.1
2023-04-15T02:51:20.360Z,1.9
2023-04-15T02:57:04.587Z,2.6
2023-04-15T03:02:55.271Z,2.7
2023-04-15T03:08:39.558Z,2.1
2023-04-15T03:14:23.847Z,2.6
2023-04-15T03:20:09.462Z,2.4
2023-04-15T03:25:53.302Z,2.4
2023-04-15T03:31:37.645Z,2.3
2023-04-15T03:37:21.634Z,1.5
2023-04-15T03:43:05.801Z,2
2023-04-15T03:48:50.162Z,2.2
2023-04-15T03:54:34.212Z,2.7
2023-04-15T04:00:18.859Z,2
2023-04-15T04:06:02.887Z,2.3
2023-04-15T04:11:47.089Z,2.4
2023-04-15T04:17:31.303Z,1.8
2023-04-15T04:23:15.503Z,2.4
2023-04-15T04:29:00.158Z,2.1
2023-04-15T04:34:44.414Z,2.8
2023-04-15T04:40:28.509Z,1.5
2023-04-15T04:46:12.870Z,2.3
2023-04-15T04:51:57.306Z,2.9
2023-04-15T04:57:41.514Z,2.1
2023-04-15T05:03:26.205Z,2.3
2023-04-15T05:09:10.337Z,2.4
2023-04-15T05:14:54.460Z,2.7
2023-04-15T05:20:38.582Z,2.9
2023-04-15T05:26:23.615Z,2.2
2023-04-15T05:32:07.887Z,1.9
2023-04-15T05:37:52.017Z,2.7
2023-04-15T05:43:36.065Z,2.6
2023-04-15T05:49:20.144Z,3.7
2023-04-15T05:55:04.345Z,3
2023-04-15T06:00:48.350Z,2.2
2023-04-15T06:06:32.289Z,3.2
2023-04-15T06:12:16.233Z,2.7
2023-04-15T06:18:00.297Z,3
2023-04-15T06:23:44.350Z,3.6
2023-04-15T06:29:28.319Z,3.3
2023-04-15T06:35:12.885Z,3.3
2023-04-15T06:40:56.842Z,3.4
2023-04-15T06:46:40.895Z,3.6
2023-04-15T06:52:24.842Z,4.1
2023-04-15T06:58:08.837Z,3.4
2023-04-15T07:03:53.022Z,3.1
2023-04-15T07:09:37.349Z,3.1
2023-04-15T07:15:21.655Z,2.6
2023-04-15T07:21:07.050Z,3.8
2023-04-15T07:26:51.012Z,2.8
2023-04-15T07:32:35.139Z,3.7
2023-04-15T07:38:19.106Z,3.7
2023-04-15T07:44:03.252Z,5.1
2023-04-15T07:49:47.212Z,3.7
2023-04-15T07:55:32.207Z,3.9
2023-04-15T08:01:16.137Z,4.5
2023-04-15T08:07:00.069Z,3.4
2023-04-15T08:12:43.927Z,4
2023-04-15T08:18:27.930Z,3.6
2023-04-15T08:24:12.151Z,3.9
2023-04-15T08:29:56.067Z,4
2023-04-15T08:35:40.163Z,3.8
2023-04-15T08:41:27.019Z,4.4
2023-04-15T08:47:11.951Z,3.3
2023-04-15T08:52:56.572Z,3.3
2023-04-15T08:58:40.995Z,4.6
2023-04-15T09:04:27.131Z,3.1
2023-04-15T09:10:12.290Z,5.3
2023-04-15T09:15:56.529Z,4.4
2023-04-15T09:21:40.745Z,4.6
2023-04-15T09:27:24.491Z,4
2023-04-15T09:33:09.029Z,4.8
2023-04-15T09:39:03.389Z,3.7
2023-04-15T09:44:47.668Z,5.2
2023-04-15T09:50:33.471Z,4.6
2023-04-15T09:56:18.141Z,3.8
2023-04-15T10:02:03.124Z,4.8
2023-04-15T10:07:47.707Z,4.7
2023-04-15T10:13:33.517Z,6.5
2023-04-15T10:19:18.936Z,3.5
2023-04-15T10:25:03.304Z,3.4
2023-04-15T10:30:47.606Z,4.2
2023-04-15T10:36:31.853Z,5
2023-04-15T10:42:17.072Z,7.2
2023-04-15T10:48:06.951Z,6.4
2023-04-15T10:53:51.260Z,5.1
2023-04-15T10:59:36.783Z,4.5
2023-04-15T11:05:21.230Z,3.7
2023-04-15T11:11:05.050Z,5.2
2023-04-15T11:16:50.262Z,5.3
2023-04-15T11:22:34.296Z,4.2
2023-04-15T11:28:18.118Z,3.5
2023-04-15T11:34:03.159Z,3.6
2023-04-15T11:39:47.356Z,4.3
2023-04-15T11:45:31.688Z,3.3
2023-04-15T11:51:16.555Z,3.8
2023-04-15T11:57:00.678Z,3.2
2023-04-15T12:02:45.381Z,3
2023-04-15T12:08:29.548Z,2.9
2023-04-15T12:14:15.194Z,4
2023-04-15T12:19:59.556Z,3
2023-04-15T12:25:43.814Z,2.3
2023-04-15T12:31:28.213Z,2.5
2023-04-15T12:37:13.086Z,1.9
2023-04-15T12:42:57.052Z,2.6
2023-04-15T12:48:41.030Z,2.5
2023-04-15T12:54:24.936Z,3.5
2023-04-15T13:00:09.642Z,2.4
2023-04-15T13:05:53.698Z,3
2023-04-15T13:11:38.198Z,4.6
2023-04-15T13:17:22.312Z,2
2023-04-15T13:23:06.472Z,4.6
2023-04-15T13:28:50.514Z,4.2
2023-04-15T13:34:34.604Z,3.1
2023-04-15T13:40:18.749Z,3.8
2023-04-15T13:46:03.214Z,1.8
2023-04-15T13:51:47.333Z,3.2
2023-04-15T13:57:32.615Z,2.6
2023-04-15T14:03:17.293Z,2.6
2023-04-15T14:09:02.038Z,2.5
2023-04-15T14:14:46.151Z,3.8
2023-04-15T14:20:30.338Z,3.2
2023-04-15T14:26:14.439Z,2.8
2023-04-15T14:32:14.407Z,2.1
2023-04-15T14:38:00.031Z,2.3
2023-04-15T14:43:44.456Z,4.1
2023-04-15T14:49:28.644Z,3.8
2023-04-15T14:55:14.209Z,1.7
2023-04-15T15:00:58.524Z,3.8
2023-04-15T15:06:42.859Z,2.7
2023-04-15T15:12:26.894Z,3.2
2023-04-15T15:18:12.244Z,1.5
2023-04-15T15:23:56.147Z,3.4
2023-04-15T15:29:40.548Z,1.8
2023-04-15T15:35:24.629Z,2
2023-04-15T15:41:08.699Z,2.1
2023-04-15T15:46:53.460Z,2.4
2023-04-15T15:52:37.394Z,2
2023-04-15T15:58:21.146Z,4
2023-04-15T16:04:05.942Z,1.7
2023-04-15T16:09:50.102Z,2.1
2023-04-15T16:15:34.013Z,3.2
2023-04-15T16:21:18.324Z,2.2
2023-04-15T16:27:02.166Z,1.3
2023-04-15T16:32:46.609Z,4.2
2023-04-15T16:38:30.806Z,2.2
2023-04-15T16:44:14.831Z,5.4
2023-04-15T16:49:58.771Z,3.2
2023-04-15T16:55:42.934Z,3
2023-04-15T17:01:27.552Z,3.6
2023-04-15T17:07:12.067Z,2.5
2023-04-15T17:12:56.055Z,2.3
2023-04-15T17:18:42.083Z,3.7
2023-04-15T17:24:25.990Z,3.4
2023-04-15T17:30:10.877Z,2.1
2023-04-15T17:35:54.923Z,2.4
2023-04-15T17:41:40.002Z,3.1
2023-04-15T17:47:24.269Z,3.5
2023-04-15T17:53:08.356Z,2.7
2023-04-15T17:58:52.566Z,2.5
2023-04-15T18:04:37.284Z,2.8
2023-04-15T18:10:21.549Z,2.8
2023-04-15T18:16:05.739Z,1.8
2023-04-15T18:21:49.645Z,2.5
2023-04-15T18:27:34.077Z,2.2
2023-04-15T18:33:18.171Z,2.5
2023-04-15T18:39:02.021Z,1.7
2023-04-15T18:44:46.213Z,2.5
2023-04-15T18:50:31.439Z,2.8
2023-04-15T18:56:15.362Z,2.6
2023-04-15T19:01:59.502Z,2.5
2023-04-15T19:07:43.625Z,2.4
2023-04-15T19:13:27.722Z,3.2
2023-04-15T19:19:12.663Z,2.9
2023-04-15T19:24:57.350Z,3.6
2023-04-15T19:30:41.650Z,4.6
2023-04-15T19:36:25.719Z,3.5
2023-04-15T19:42:10.829Z,3.6
2023-04-15T19:47:55.077Z,4.5
2023-04-15T19:53:39.086Z,3.3
2023-04-15T19:59:23.030Z,3
2023-04-15T20:05:07.274Z,5
2023-04-15T20:10:51.256Z,3.2
2023-04-15T20:16:37.703Z,4.1
2023-04-15T20:22:21.692Z,3.3
2023-04-15T20:28:05.772Z,4.7
2023-04-15T20:33:49.719Z,3.5
2023-04-15T20:39:34.022Z,4
2023-04-15T20:45:18.032Z,4.7
2023-04-15T20:51:02.095Z,4
2023-04-15T20:56:46.033Z,3.5
2023-04-15T21:02:31.636Z,3.7
2023-04-15T21:08:15.862Z,4.6
2023-04-15T21:14:00.017Z,6.7
2023-04-15T21:19:44.038Z,4.7
2023-04-15T21:25:27.958Z,5.6
2023-04-15T21:31:11.956Z,5.2
2023-04-15T21:36:55.965Z,5
2023-04-15T21:42:40.181Z,4.7
2023-04-15T21:48:24.483Z,5
2023-04-15T21:54:08.545Z,6.4
2023-04-15T21:59:52.524Z,5.2
2023-04-15T22:05:36.499Z,5.9
2023-04-15T22:11:25.590Z,5.1
2023-04-15T22:17:10.741Z,6.4
2023-04-15T22:22:57.780Z,5.5
2023-04-15T22:28:41.454Z,5.3
2023-04-15T22:34:25.627Z,7
2023-04-15T22:40:10.125Z,6.6
2023-04-15T22:45:56.489Z,6.8
2023-04-15T22:51:40.194Z,5.3
2023-04-15T22:57:24.489Z,7.5
2023-04-15T23:03:11.167Z,5.6
2023-04-15T23:08:55.423Z,8
2023-04-15T23:14:40.367Z,4.2
2023-04-15T23:20:24.361Z,5.8
2023-04-15T23:26:08.367Z,5.8
2023-04-15T23:31:52.530Z,6.4
2023-04-15T23:37:36.884Z,5
2023-04-15T23:43:21.273Z,7.9
2023-04-15T23:49:05.350Z,5.3
2023-04-15T23:54:49.497Z,5.4
